• Join FlightAware (Why Join?)
  • Login
  • US Flag 
05:03PM EDT


 

Airport Tracker/Info


-or-


 

Live Flight TrackerFlight Track Log ✈ AWE3287 ✈ 27-Apr-2013 ✈ KPHL - KORF

Flight Track Log - Related Links

Times and Time Zones

All times are in EDT time to prevent confusion due to time zone crossing. See the AWE3287 flight status page for this flight to view local times or setup timezone preferences in your user account.

Time Position Orientation Groundspeed Altitude Reporting Facility
EDT Latitude Longitude Course Direction KTS MPH feet Rate Location/Type
02:04PM 39.8833 -75.2167 185° South 138 159 1,400  Level Philadelphia TRACON
02:05PM 39.8500 -75.1333 117° Southeast 245 282 4,200 2,940 Climbing Philadelphia TRACON
02:06PM 39.6418 -75.2915 218° Southwest  Level FlightAware Approximate
02:06PM 39.7833 -75.1333 180° South 280 322 7,900  Level Philadelphia TRACON
02:07PM 39.5659 -75.3035 189° South  Level FlightAware Approximate
02:08PM 39.4886 -75.3205 194° South  Level FlightAware Approximate
02:08PM 39.6339 -75.3033 221° Southwest 312 359 12,900  Level Washington Center
02:09PM 39.4115 -75.3358 185° South  Level FlightAware Approximate
02:09PM 39.5403 -75.3250 190° South 318 366 15,700  Level Washington Center
02:10PM 39.4425 -75.3389 186° South 331 381 16,000 360 Climbing Washington Center
02:11PM 39.3403 -75.3581 188° South 358 412 16,500 480 Climbing Washington Center
02:12PM 39.2361 -75.3744 187° South 372 428 17,000 240 Climbing Washington Center
02:13PM 39.1342 -75.3936 188° South 372 428 17,000 780 Level Washington Center
02:14PM 39.0278 -75.4100 187° South 384 442 18,600 1,860 Climbing Washington Center
02:15PM 38.9153 -75.4261 186° South 395 455 20,800 1,680 Climbing Washington Center
02:16PM 38.7986 -75.4450 187° South 413 475 22,000 600 Climbing Washington Center
02:17PM 38.6839 -75.4642 187° South 423 487 22,000  Level Washington Center
02:18PM 38.5631 -75.4803 186° South 428 493 22,000  Level Washington Center
02:19PM 38.4442 -75.4989 187° South 428 493 22,000  Level Washington Center
02:20PM 38.3294 -75.5228 189° South 423 487 22,000  Level Washington Center
02:21PM 38.2128 -75.5892 204° Southwest 417 480 22,000 -180 Level Washington Center
02:22PM 38.1211 -75.6497 207° Southwest 417 480 21,700 -1,740 Descending Washington Center
02:23PM 38.0231 -75.7131 207° Southwest 412 474 18,600 -2,640 Descending Washington Center
02:24PM 37.9269 -75.7733 206° Southwest 394 453 16,600 -2,160 Descending Washington Center
02:25PM 37.8600 -75.8181 208° Southwest 369 425 15,200 -1,980 Descending Washington Center
02:25PM 37.8331 -75.8258 193° South 383 441 14,600 -1,740 Descending Washington Center
02:26PM 37.7453 -75.8858 208° Southwest 378 435 12,800 -2,100 Descending Washington Center
02:27PM 37.7014 -75.9094 203° Southwest 362 417 11,900 -1,980 Descending Washington Center
02:27PM 37.6556 -75.9406 208° Southwest 365 420 10,800 -1,140 Descending Washington Center
02:28PM 37.5656 -75.9794 199° South 355 409 10,000 -600 Descending Washington Center
02:29PM 37.5281 -75.9794 180° South 297 342 10,000  Level Washington Center
02:29PM 37.4822 -75.9869 187° South 323 372 10,000  Level Washington Center
02:30PM 37.4447 -75.9894 183° South 301 346 10,000  Level Washington Center
02:30PM 37.4028 -76.0022 194° South 311 358 10,000  Level Washington Center
02:31PM 37.3506 -76.0228 197° South 299 344 10,000  Level Washington Center
02:31PM 37.3214 -76.0333 196° South 305 351 10,000  Level Washington Center
02:32PM 37.2714 -76.0539 198° South 301 346 10,000  Level Washington Center
02:32PM 37.2419 -76.0667 199° South 305 351 10,000  Level Washington Center
02:33PM 37.1961 -76.0847 197° South 303 349 10,000  Level Washington Center
02:33PM 37.1625 -76.1000 200° South 305 351 10,000  Level Washington Center
02:34PM 37.1083 -76.1206 197° South 305 351 10,000  Level Washington Center
02:34PM 37.0811 -76.1308 197° South 305 351 10,000 -300 Level Washington Center
02:35PM 37.0308 -76.1514 198° South 302 348 9,700 -1,200 Descending Washington Center
02:36PM 36.9536 -76.1792 196° South 289 333 8,200 -1,800 Descending Washington Center
02:37PM 36.8803 -76.2228 205° Southwest 288 331 6,100 -2,040 Descending Washington Center